WWP weather

Whale Pass Seaplane Float Harbor Facility
Whale Pass, Alaska, United States

Public forecast

Using degrees Fahrenheit for public forecast. Weather courtesy of forecast.io.

Closest aviation weather report (METAR) to Whale Pass Seaplane Float Harbor Facility

Closest report is Klawock Airport, 32.3 nm (59.8 km) S. Retrieved 2019/11/13 17:53 UTC (58 minutes ago):

PAKW 131753Z AUTO 00000KT 9SM OVC027 09/08 A2988 RMK RAE30 SLP118 P0000 60009 T00890078 10100 20089 56015 TSNO VIA AUTODIAL

Closest aviation forecast (TAF) to Whale Pass Seaplane Float Harbor Facility

Closest forecast is Klawock Airport, 32.3 nm (59.8 km) S. Retrieved 2019/11/13 18:28 UTC (23 minutes ago):

TAF PAKW 131725Z 1318/1418 07006KT 6SM -RA SCT025 OVC035 WS020/15030KT FM132300 08010G17KT 4SM RA BR SCT015 OVC025 WS020/15045KT FM140800 15014G24KT 4SM RA BR SCT015 OVC025 WS020/15050KT FM141500 14011KT 5SM -RA BR SCT015 OVC025 WS020/15040KT AMD LTD TO CLD VIS AND WIND